Terminal Aerodrome Forecast
Issued by NWS Cleveland, OH

Home | Current Version | Previous Version | Graphics & Text | Print | Product List | Glossary On
Versions: 1 2 3 4 5 6 7 8 9 10 11 12 13 14 15 16 17 18 19 20 21 22 23 24
000
FTUS41 KCLE 042334
TAFMFD
TAF
KMFD 042334Z 0500/0524 VRB03KT P6SM VCSH OVC120
     FM050300 16003KT P6SM SCT120 OVC250
     FM050600 16003KT 5SM BR OVC120
      TEMPO 0509/0513 2SM BR
     FM051400 18006KT P6SM SCT045=

USA.gov is the U.S. government's official web portal to all federal, state and local government web resources and services.